createdAt,value
2022-12-25T00:03:00.782Z,5.88
2022-12-25T00:06:03.494Z,5.20
2022-12-25T00:09:05.757Z,5.50
2022-12-25T00:12:08.056Z,7.57
2022-12-25T00:15:10.770Z,6.25
2022-12-25T00:18:14.394Z,4.88
2022-12-25T00:21:16.981Z,5.32
2022-12-25T00:24:19.278Z,5.60
2022-12-25T00:27:23.484Z,6.63
2022-12-25T00:30:25.840Z,5.30
2022-12-25T00:33:29.869Z,4.93
2022-12-25T00:36:36.320Z,5.93
2022-12-25T00:39:43.623Z,5.80
2022-12-25T00:42:45.827Z,5.35
2022-12-25T00:45:55.533Z,5.30
2022-12-25T00:49:00.567Z,4.63
2022-12-25T00:52:03.444Z,4.30
2022-12-25T00:55:06.526Z,4.45
2022-12-25T00:58:08.857Z,4.63
2022-12-25T01:01:11.899Z,4.30
2022-12-25T01:04:15.509Z,4.60
2022-12-25T01:07:19.925Z,3.63
2022-12-25T01:10:22.251Z,3.90
2022-12-25T01:13:24.568Z,3.88
2022-12-25T01:16:27.073Z,4.88
2022-12-25T01:19:30.960Z,6.30
2022-12-25T01:22:33.163Z,4.35
2022-12-25T01:25:35.461Z,3.55
2022-12-25T01:28:41.035Z,3.25
2022-12-25T01:31:43.356Z,3.78
2022-12-25T01:34:50.582Z,4.40
2022-12-25T01:37:58.010Z,4.13
2022-12-25T01:41:00.385Z,3.63
2022-12-25T01:44:06.391Z,3.17
2022-12-25T01:47:08.655Z,3.47
2022-12-25T01:50:12.291Z,3.70
2022-12-25T01:53:14.689Z,3.40
2022-12-25T01:56:17.079Z,3.80
2022-12-25T01:59:21.281Z,3.40
2022-12-25T02:02:24.056Z,3.30
2022-12-25T02:05:29.800Z,3.65
2022-12-25T02:08:32.791Z,3.53
2022-12-25T02:11:53.821Z,2.97
2022-12-25T02:15:04.654Z,3.63
2022-12-25T02:18:12.748Z,3.65
2022-12-25T02:21:26.333Z,4.05
2022-12-25T02:24:43.176Z,2.80
2022-12-25T02:28:09.707Z,4.10
2022-12-25T02:31:13.816Z,3.10
2022-12-25T02:34:19.268Z,4.18
2022-12-25T02:37:27.272Z,3.05
2022-12-25T02:40:32.733Z,3.38
2022-12-25T02:43:58.247Z,3.70
2022-12-25T02:47:21.290Z,3.58
2022-12-25T02:50:43.290Z,3.58
2022-12-25T02:57:28.411Z,3.20
2022-12-25T03:00:53.679Z,3.97
2022-12-25T03:04:16.423Z,2.80
2022-12-25T03:07:21.485Z,3.58
2022-12-25T03:10:43.003Z,3.33
2022-12-25T03:13:46.988Z,3.28
2022-12-25T03:16:54.550Z,3.15
2022-12-25T03:20:16.264Z,3.67
2022-12-25T03:23:40.270Z,3.55
2022-12-25T03:26:55.222Z,3.42
2022-12-25T03:30:16.287Z,4.63
2022-12-25T03:33:44.433Z,4.05
2022-12-25T03:37:33.447Z,3.33
2022-12-25T03:41:00.609Z,2.95
2022-12-25T03:44:27.209Z,4.18
2022-12-25T03:48:08.667Z,3.88
2022-12-25T03:51:32.353Z,3.63
2022-12-25T03:54:55.467Z,3.85
2022-12-25T03:58:16.485Z,3.92
2022-12-25T04:01:37.511Z,2.60
2022-12-25T04:04:58.646Z,3.83
2022-12-25T04:08:21.081Z,2.97
2022-12-25T04:11:42.128Z,3.60
2022-12-25T04:15:03.058Z,3.17
2022-12-25T04:18:23.812Z,3.40
2022-12-25T04:21:44.770Z,3.25
2022-12-25T04:25:07.094Z,3.38
2022-12-25T04:28:27.771Z,2.83
2022-12-25T04:31:48.913Z,2.65
2022-12-25T04:35:09.994Z,3.47
2022-12-25T04:38:12.324Z,3.53
2022-12-25T04:41:15.989Z,2.40
2022-12-25T04:44:18.205Z,2.95
2022-12-25T04:47:20.453Z,3.22
2022-12-25T04:50:22.702Z,4.25
2022-12-25T04:53:25.008Z,3.20
2022-12-25T04:56:28.662Z,2.92
2022-12-25T04:59:30.939Z,2.92
2022-12-25T05:02:33.382Z,2.65
2022-12-25T05:05:39.334Z,3.70
2022-12-25T05:08:41.614Z,2.72
2022-12-25T05:11:45.224Z,2.38
2022-12-25T05:14:49.195Z,3.20
2022-12-25T05:17:51.555Z,3.08
2022-12-25T05:20:54.519Z,2.53
2022-12-25T05:23:56.822Z,3.67
2022-12-25T05:27:00.420Z,3.35
2022-12-25T05:30:03.438Z,3.13
2022-12-25T05:33:05.903Z,1.67
2022-12-25T05:36:09.885Z,2.88
2022-12-25T05:39:12.378Z,3.30
2022-12-25T05:42:16.173Z,2.55
2022-12-25T05:45:18.581Z,3.15
2022-12-25T05:48:20.975Z,4.47
2022-12-25T05:51:23.212Z,2.35
2022-12-25T05:54:25.509Z,2.38
2022-12-25T05:57:29.811Z,4.18
2022-12-25T06:00:52.977Z,2.15
2022-12-25T06:03:56.311Z,2.15
2022-12-25T06:06:58.624Z,3.97
2022-12-25T06:10:00.887Z,2.50
2022-12-25T06:13:04.585Z,1.80
2022-12-25T06:16:08.176Z,1.88
2022-12-25T06:19:10.561Z,1.92
2022-12-25T06:22:12.829Z,2.80
2022-12-25T06:25:15.248Z,2.55
2022-12-25T06:28:18.746Z,1.83
2022-12-25T06:31:22.899Z,2.80
2022-12-25T06:34:25.277Z,2.38
2022-12-25T06:37:27.484Z,3.72
2022-12-25T06:40:29.740Z,2.08
2022-12-25T06:43:33.266Z,2.28
2022-12-25T06:46:35.814Z,1.70
2022-12-25T06:49:38.096Z,1.98
2022-12-25T06:52:40.399Z,2.50
2022-12-25T06:55:42.714Z,2.75
2022-12-25T06:58:47.492Z,3.13
2022-12-25T07:01:53.269Z,2.47
2022-12-25T07:04:55.621Z,3.38
2022-12-25T07:07:57.877Z,1.95
2022-12-25T07:11:00.323Z,3.83
2022-12-25T07:14:03.918Z,1.95
2022-12-25T07:17:06.785Z,3.17
2022-12-25T07:20:09.830Z,2.55
2022-12-25T07:23:12.138Z,2.25
2022-12-25T07:26:15.016Z,2.30
2022-12-25T07:29:19.605Z,2.45
2022-12-25T07:32:21.850Z,2.80
2022-12-25T07:35:24.156Z,1.95
2022-12-25T07:38:26.573Z,2.42
2022-12-25T07:41:28.800Z,3.40
2022-12-25T07:44:50.011Z,2.72
2022-12-25T07:47:55.082Z,3.30
2022-12-25T07:50:58.880Z,3.80
2022-12-25T07:54:01.184Z,2.53
2022-12-25T07:57:03.636Z,2.28
2022-12-25T08:00:09.591Z,3.50
2022-12-25T08:03:15.919Z,3.70
2022-12-25T08:06:18.937Z,3.20
2022-12-25T08:09:21.217Z,3.20
2022-12-25T08:12:23.398Z,3.38
2022-12-25T08:15:27.642Z,3.53
2022-12-25T08:18:30.620Z,3.45
2022-12-25T08:21:35.905Z,3.45
2022-12-25T08:24:38.102Z,3.72
2022-12-25T08:27:40.438Z,3.92
2022-12-25T08:30:43.998Z,3.60
2022-12-25T08:33:47.045Z,3.72
2022-12-25T08:36:50.643Z,4.00
2022-12-25T08:39:53.355Z,3.28
2022-12-25T08:42:56.366Z,2.95
2022-12-25T08:46:03.091Z,3.30
2022-12-25T08:49:05.436Z,3.13
2022-12-25T08:52:07.857Z,3.10
2022-12-25T08:55:10.235Z,3.28
2022-12-25T08:58:12.720Z,3.55
2022-12-25T09:01:16.702Z,3.20
2022-12-25T09:04:19.067Z,3.20
2022-12-25T09:07:21.369Z,2.95
2022-12-25T09:10:23.781Z,2.80
2022-12-25T09:13:26.040Z,2.97
2022-12-25T09:16:29.854Z,3.33
2022-12-25T09:19:32.263Z,2.95
2022-12-25T09:22:35.085Z,3.65
2022-12-25T09:25:37.345Z,4.10
2022-12-25T09:28:43.675Z,3.60
2022-12-25T09:31:50.434Z,3.28
2022-12-25T09:34:52.737Z,3.28
2022-12-25T09:37:55.156Z,3.45
2022-12-25T09:40:59.092Z,2.97
2022-12-25T09:44:04.371Z,3.33
2022-12-25T09:47:13.790Z,3.70
2022-12-25T09:50:18.899Z,3.78
2022-12-25T09:53:23.038Z,4.30
2022-12-25T09:56:25.880Z,4.00
2022-12-25T09:59:28.233Z,4.90
2022-12-25T10:02:47.813Z,5.00
2022-12-25T10:06:03.266Z,5.18
2022-12-25T10:09:18.942Z,5.38
2022-12-25T10:12:35.221Z,6.70
2022-12-25T10:15:45.838Z,5.68
2022-12-25T10:18:59.019Z,5.70
2022-12-25T10:22:05.166Z,6.97
2022-12-25T10:25:16.095Z,5.93
2022-12-25T10:28:23.858Z,7.20
2022-12-25T10:31:27.709Z,6.05
2022-12-25T10:34:32.603Z,5.55
2022-12-25T10:37:34.928Z,5.90
2022-12-25T10:40:44.523Z,5.90
2022-12-25T10:43:50.102Z,4.97
2022-12-25T10:46:55.132Z,4.63
2022-12-25T10:49:59.120Z,5.70
2022-12-25T10:53:04.712Z,5.45
2022-12-25T10:56:13.843Z,5.93
2022-12-25T10:59:16.080Z,4.82
2022-12-25T11:02:22.232Z,6.22
2022-12-25T11:05:28.591Z,5.07
2022-12-25T11:08:31.968Z,6.57
2022-12-25T11:11:34.271Z,5.18
2022-12-25T11:14:37.313Z,5.57
2022-12-25T11:17:39.574Z,5.05
2022-12-25T11:20:49.721Z,4.72
2022-12-25T11:23:57.064Z,5.85
2022-12-25T11:27:00.929Z,5.22
2022-12-25T11:30:04.556Z,4.47
2022-12-25T11:33:11.228Z,4.60
2022-12-25T11:36:20.418Z,8.70
2022-12-25T11:39:24.487Z,5.32
2022-12-25T11:42:29.153Z,6.47
2022-12-25T11:45:35.641Z,5.68
2022-12-25T11:48:41.540Z,5.32
2022-12-25T11:51:47.560Z,6.03
2022-12-25T11:54:54.112Z,5.07
2022-12-25T11:58:00.363Z,5.68
2022-12-25T12:01:08.601Z,6.15
2022-12-25T12:04:17.385Z,6.07
2022-12-25T12:07:26.410Z,5.65
2022-12-25T12:10:35.628Z,4.60
2022-12-25T12:13:43.986Z,6.72
2022-12-25T12:16:46.567Z,10.18
2022-12-25T12:19:48.954Z,5.40
2022-12-25T12:22:52.776Z,6.93
2022-12-25T12:25:55.603Z,6.53
2022-12-25T12:29:00.248Z,7.13
2022-12-25T12:32:04.160Z,6.65
2022-12-25T12:35:16.489Z,6.80
2022-12-25T12:38:21.246Z,8.35
2022-12-25T12:41:24.368Z,7.32
2022-12-25T12:44:31.615Z,8.90
2022-12-25T12:47:39.045Z,10.55
2022-12-25T12:50:42.133Z,12.20
2022-12-25T12:53:45.756Z,11.77
2022-12-25T12:56:58.938Z,11.77
2022-12-25T13:00:10.575Z,13.13
2022-12-25T13:03:33.661Z,12.32
2022-12-25T13:06:41.344Z,13.43
2022-12-25T13:09:55.287Z,13.55
2022-12-25T13:12:59.968Z,13.48
2022-12-25T13:16:03.561Z,12.77
2022-12-25T13:19:08.011Z,11.02
2022-12-25T13:22:22.389Z,11.82
2022-12-25T13:25:25.996Z,11.75
2022-12-25T13:28:29.600Z,11.98
2022-12-25T13:31:32.149Z,13.77
2022-12-25T13:34:36.677Z,14.02
2022-12-25T13:37:38.987Z,14.35
2022-12-25T13:41:10.088Z,14.20
2022-12-25T13:44:18.267Z,12.65
2022-12-25T13:47:25.406Z,12.15
2022-12-25T13:50:30.347Z,12.70
2022-12-25T13:53:32.715Z,10.57
2022-12-25T13:56:36.298Z,13.02
2022-12-25T13:59:38.920Z,10.98
2022-12-25T14:02:41.493Z,12.20
2022-12-25T14:05:44.079Z,13.38
2022-12-25T14:08:46.937Z,12.43
2022-12-25T14:11:51.529Z,10.65
2022-12-25T14:14:55.067Z,11.40
2022-12-25T14:17:57.901Z,11.45
2022-12-25T14:21:02.820Z,10.10
2022-12-25T14:24:12.965Z,9.52
2022-12-25T14:27:20.124Z,10.30
2022-12-25T14:30:23.194Z,9.73
2022-12-25T14:33:26.269Z,12.25
2022-12-25T14:36:29.546Z,10.07
2022-12-25T14:39:34.869Z,10.10
2022-12-25T14:42:39.283Z,10.27
2022-12-25T14:45:41.836Z,10.65
2022-12-25T14:48:44.284Z,10.63
2022-12-25T14:51:47.402Z,11.30
2022-12-25T14:54:52.539Z,10.02
2022-12-25T14:57:58.839Z,10.25
2022-12-25T15:01:03.720Z,10.02
2022-12-25T15:04:08.270Z,9.43
2022-12-25T15:07:26.124Z,9.18
2022-12-25T15:10:58.970Z,9.45
2022-12-25T15:13:52.678Z,11.43
2022-12-25T15:16:57.181Z,10.10
2022-12-25T15:20:01.236Z,10.15
2022-12-25T15:23:19.410Z,11.77
2022-12-25T15:26:22.943Z,11.50
2022-12-25T15:29:59.753Z,11.23
2022-12-25T15:32:48.919Z,10.75
2022-12-25T15:35:51.289Z,10.98
2022-12-25T15:38:54.382Z,11.40
2022-12-25T15:42:11.941Z,10.80
2022-12-25T15:45:19.987Z,10.88
2022-12-25T15:48:22.308Z,10.70
2022-12-25T15:51:24.722Z,11.70
2022-12-25T15:54:27.368Z,11.57
2022-12-25T15:57:30.671Z,11.57
2022-12-25T16:00:34.435Z,11.68
2022-12-25T16:03:36.927Z,10.68
2022-12-25T16:06:39.329Z,11.88
2022-12-25T16:09:41.808Z,10.68
2022-12-25T16:12:47.385Z,10.45
2022-12-25T16:15:51.214Z,10.95
2022-12-25T16:18:54.313Z,10.70
2022-12-25T16:21:56.683Z,10.80
2022-12-25T16:24:59.022Z,10.18
2022-12-25T16:28:03.514Z,9.73
2022-12-25T16:31:07.206Z,9.60
2022-12-25T16:34:10.688Z,9.25
2022-12-25T16:37:13.037Z,9.05
2022-12-25T16:40:15.380Z,7.65
2022-12-25T16:43:23.789Z,9.30
2022-12-25T16:46:27.934Z,8.27
2022-12-25T16:49:30.303Z,7.93
2022-12-25T16:52:33.492Z,8.32
2022-12-25T16:55:37.747Z,7.63
2022-12-25T16:58:40.334Z,7.40
2022-12-25T17:01:44.321Z,6.40
2022-12-25T17:04:47.306Z,7.55
2022-12-25T17:07:49.664Z,6.75
2022-12-25T17:10:51.947Z,7.47
2022-12-25T17:13:54.502Z,7.40
2022-12-25T17:16:58.317Z,6.15
2022-12-25T17:20:00.733Z,6.78
2022-12-25T17:23:03.116Z,8.02
2022-12-25T17:26:06.040Z,8.57
2022-12-25T17:29:08.663Z,8.15
2022-12-25T17:32:12.409Z,8.50
2022-12-25T17:35:14.777Z,7.22
2022-12-25T17:38:17.070Z,7.78
2022-12-25T17:41:20.257Z,9.05
2022-12-25T17:44:22.632Z,6.10
2022-12-25T17:47:26.363Z,7.03
2022-12-25T17:50:28.704Z,7.65
2022-12-25T17:53:31.393Z,6.45
2022-12-25T17:56:33.766Z,7.38
2022-12-25T17:59:36.086Z,7.57
2022-12-25T18:02:40.264Z,7.15
2022-12-25T18:05:42.778Z,7.20
2022-12-25T18:08:46.537Z,6.72
2022-12-25T18:11:48.826Z,6.43
2022-12-25T18:14:51.259Z,5.97
2022-12-25T18:17:54.952Z,5.32
2022-12-25T18:20:57.276Z,5.05
2022-12-25T18:23:59.625Z,5.55
2022-12-25T18:27:01.915Z,4.82
2022-12-25T18:30:05.195Z,4.85
2022-12-25T18:33:09.300Z,5.80
2022-12-25T18:36:14.402Z,4.18
2022-12-25T18:39:16.662Z,4.90
2022-12-25T18:42:37.811Z,4.32
2022-12-25T18:45:40.375Z,5.65
2022-12-25T18:48:44.397Z,4.78
2022-12-25T18:51:46.797Z,5.18
2022-12-25T18:54:49.122Z,4.93
2022-12-25T18:57:51.435Z,4.75
2022-12-25T19:00:53.845Z,4.90
2022-12-25T19:04:04.651Z,4.75
2022-12-25T19:07:07.596Z,4.38
2022-12-25T19:10:13.313Z,4.70
2022-12-25T19:13:16.875Z,4.20
2022-12-25T19:16:19.300Z,4.55
2022-12-25T19:19:23.738Z,4.72
2022-12-25T19:22:26.135Z,4.10
2022-12-25T19:25:28.475Z,4.20
2022-12-25T19:28:30.952Z,4.20
2022-12-25T19:31:34.744Z,3.78
2022-12-25T19:34:38.540Z,4.40
2022-12-25T19:37:40.878Z,4.93
2022-12-25T19:41:00.215Z,4.30
2022-12-25T19:44:03.567Z,4.43
2022-12-25T19:47:06.029Z,3.97
2022-12-25T19:50:10.433Z,4.32
2022-12-25T19:53:16.622Z,4.47
2022-12-25T19:56:19.358Z,4.45
2022-12-25T19:59:22.099Z,4.43
2022-12-25T20:02:24.515Z,4.18
2022-12-25T20:05:31.781Z,3.90
2022-12-25T20:08:34.532Z,4.68
2022-12-25T20:11:37.485Z,5.75
2022-12-25T20:14:39.836Z,4.97
2022-12-25T20:17:42.329Z,4.63
2022-12-25T20:20:48.812Z,4.60
2022-12-25T20:23:52.503Z,4.32
2022-12-25T20:26:59.021Z,4.70
2022-12-25T20:30:01.912Z,3.88
2022-12-25T20:33:04.270Z,3.42
2022-12-25T20:36:09.423Z,4.50
2022-12-25T20:39:12.812Z,4.40
2022-12-25T20:42:15.159Z,3.58
2022-12-25T20:45:17.625Z,4.18
2022-12-25T20:48:20.555Z,3.22
2022-12-25T20:51:25.721Z,4.10
2022-12-25T20:54:28.119Z,4.22
2022-12-25T20:57:30.532Z,3.75
2022-12-25T21:00:32.981Z,3.53
2022-12-25T21:03:35.572Z,4.35
2022-12-25T21:06:39.349Z,3.85
2022-12-25T21:09:41.590Z,3.35
2022-12-25T21:12:43.892Z,3.65
2022-12-25T21:15:49.081Z,2.97
2022-12-25T21:18:52.975Z,3.45
2022-12-25T21:21:56.597Z,4.20
2022-12-25T21:24:58.914Z,3.65
2022-12-25T21:28:01.281Z,3.22
2022-12-25T21:31:04.290Z,3.25
2022-12-25T21:34:06.838Z,3.25
2022-12-25T21:37:10.672Z,3.78
2022-12-25T21:40:16.533Z,3.92
2022-12-25T21:43:19.099Z,3.20
2022-12-25T21:46:21.903Z,3.08
2022-12-25T21:49:42.838Z,3.08
2022-12-25T21:52:46.462Z,2.85
2022-12-25T21:55:58.869Z,3.05
2022-12-25T21:59:02.209Z,3.00
2022-12-25T22:02:11.312Z,3.60
2022-12-25T22:05:34.884Z,3.38
2022-12-25T22:08:39.562Z,3.30
2022-12-25T22:12:00.590Z,3.05
2022-12-25T22:15:06.676Z,2.37
2022-12-25T22:18:27.998Z,2.38
2022-12-25T22:21:30.406Z,2.22
2022-12-25T22:24:34.249Z,2.35
2022-12-25T22:27:38.042Z,2.50
2022-12-25T22:30:44.196Z,1.90
2022-12-25T22:33:46.686Z,2.00
2022-12-25T22:36:49.162Z,2.20
2022-12-25T22:39:52.841Z,2.33
2022-12-25T22:42:55.997Z,3.60
2022-12-25T22:45:58.884Z,1.70
2022-12-25T22:49:02.079Z,1.63
2022-12-25T22:52:04.499Z,2.22
2022-12-25T22:55:09.641Z,1.58
2022-12-25T22:58:11.968Z,1.70
2022-12-25T23:01:14.937Z,2.28
2022-12-25T23:04:17.847Z,1.80
2022-12-25T23:07:20.383Z,1.77
2022-12-25T23:10:24.114Z,1.65
2022-12-25T23:13:46.742Z,1.70
2022-12-25T23:16:49.069Z,1.67
2022-12-25T23:20:10.162Z,2.08
2022-12-25T23:23:33.471Z,1.40
2022-12-25T23:26:37.168Z,1.30
2022-12-25T23:29:39.924Z,1.70
2022-12-25T23:32:42.920Z,1.58
2022-12-25T23:35:45.203Z,1.10
2022-12-25T23:38:47.517Z,1.63
2022-12-25T23:41:51.459Z,1.40
2022-12-25T23:44:53.800Z,1.40
2022-12-25T23:47:56.808Z,1.05
2022-12-25T23:51:02.309Z,1.00
2022-12-25T23:54:05.360Z,1.17
2022-12-25T23:57:09.459Z,1.10
